sensor_id;sensor_type;location;lat;lon;timestamp;P1;durP1;ratioP1;P2;durP2;ratioP2
49578;SDS011;35483;50.828;3.228;2023-07-20T00:00:31;9.02;;;3.92;;
49578;SDS011;35483;50.828;3.228;2023-07-20T00:03:10;4.93;;;4.10;;
49578;SDS011;35483;50.828;3.228;2023-07-20T00:05:41;6.47;;;4.13;;
49578;SDS011;35483;50.828;3.228;2023-07-20T00:08:10;8.48;;;4.28;;
49578;SDS011;35483;50.828;3.228;2023-07-20T00:10:36;7.82;;;4.43;;
49578;SDS011;35483;50.828;3.228;2023-07-20T00:13:02;8.07;;;4.22;;
49578;SDS011;35483;50.828;3.228;2023-07-20T00:15:28;9.23;;;4.15;;
49578;SDS011;35483;50.828;3.228;2023-07-20T00:17:54;11.02;;;4.20;;
49578;SDS011;35483;50.828;3.228;2023-07-20T00:20:19;6.93;;;4.05;;
49578;SDS011;35483;50.828;3.228;2023-07-20T00:22:45;9.20;;;4.32;;
49578;SDS011;35483;50.828;3.228;2023-07-20T00:25:11;6.40;;;4.22;;
49578;SDS011;35483;50.828;3.228;2023-07-20T00:27:37;8.43;;;4.55;;
49578;SDS011;35483;50.828;3.228;2023-07-20T00:30:03;10.40;;;4.78;;
49578;SDS011;35483;50.828;3.228;2023-07-20T00:32:30;10.77;;;5.00;;
49578;SDS011;35483;50.828;3.228;2023-07-20T00:34:55;9.05;;;4.60;;
49578;SDS011;35483;50.828;3.228;2023-07-20T00:37:21;10.68;;;4.72;;
49578;SDS011;35483;50.828;3.228;2023-07-20T00:39:47;9.95;;;5.38;;
49578;SDS011;35483;50.828;3.228;2023-07-20T00:42:13;7.78;;;4.68;;
49578;SDS011;35483;50.828;3.228;2023-07-20T00:44:39;9.30;;;4.85;;
49578;SDS011;35483;50.828;3.228;2023-07-20T00:47:06;10.45;;;4.47;;
49578;SDS011;35483;50.828;3.228;2023-07-20T00:49:32;6.30;;;4.63;;
49578;SDS011;35483;50.828;3.228;2023-07-20T00:51:59;8.90;;;4.90;;
49578;SDS011;35483;50.828;3.228;2023-07-20T00:54:26;10.15;;;5.25;;
49578;SDS011;35483;50.828;3.228;2023-07-20T00:56:53;8.27;;;5.28;;
49578;SDS011;35483;50.828;3.228;2023-07-20T00:59:19;8.95;;;5.00;;
49578;SDS011;35483;50.828;3.228;2023-07-20T01:01:47;12.20;;;5.25;;
49578;SDS011;35483;50.828;3.228;2023-07-20T01:04:13;7.43;;;4.90;;
49578;SDS011;35483;50.828;3.228;2023-07-20T01:09:15;13.63;;;5.70;;
49578;SDS011;35483;50.828;3.228;2023-07-20T01:11:57;11.30;;;5.38;;
49578;SDS011;35483;50.828;3.228;2023-07-20T01:14:28;13.07;;;5.95;;
49578;SDS011;35483;50.828;3.228;2023-07-20T01:16:55;8.70;;;5.85;;
49578;SDS011;35483;50.828;3.228;2023-07-20T01:19:20;11.05;;;5.57;;
49578;SDS011;35483;50.828;3.228;2023-07-20T01:32:29;11.02;;;6.32;;
49578;SDS011;35483;50.828;3.228;2023-07-20T01:34:56;11.68;;;6.82;;
49578;SDS011;35483;50.828;3.228;2023-07-20T01:37:23;12.50;;;6.30;;
49578;SDS011;35483;50.828;3.228;2023-07-20T01:39:53;10.27;;;6.43;;
49578;SDS011;35483;50.828;3.228;2023-07-20T01:42:22;10.77;;;6.05;;
49578;SDS011;35483;50.828;3.228;2023-07-20T01:44:52;11.52;;;6.30;;
49578;SDS011;35483;50.828;3.228;2023-07-20T01:47:18;10.30;;;6.28;;
49578;SDS011;35483;50.828;3.228;2023-07-20T01:49:44;12.32;;;6.13;;
49578;SDS011;35483;50.828;3.228;2023-07-20T01:52:10;11.43;;;7.00;;
49578;SDS011;35483;50.828;3.228;2023-07-20T01:54:36;10.10;;;6.47;;
49578;SDS011;35483;50.828;3.228;2023-07-20T01:57:02;12.98;;;6.85;;
49578;SDS011;35483;50.828;3.228;2023-07-20T01:59:29;13.63;;;6.25;;
49578;SDS011;35483;50.828;3.228;2023-07-20T02:01:54;13.00;;;6.47;;
49578;SDS011;35483;50.828;3.228;2023-07-20T02:04:20;12.52;;;6.22;;
49578;SDS011;35483;50.828;3.228;2023-07-20T02:06:46;11.90;;;6.60;;
49578;SDS011;35483;50.828;3.228;2023-07-20T02:09:12;10.25;;;6.13;;
49578;SDS011;35483;50.828;3.228;2023-07-20T02:11:37;12.57;;;7.10;;
49578;SDS011;35483;50.828;3.228;2023-07-20T02:14:03;10.40;;;6.28;;
49578;SDS011;35483;50.828;3.228;2023-07-20T02:16:29;10.57;;;6.18;;
49578;SDS011;35483;50.828;3.228;2023-07-20T02:18:54;11.52;;;6.60;;
49578;SDS011;35483;50.828;3.228;2023-07-20T02:21:22;9.90;;;6.40;;
49578;SDS011;35483;50.828;3.228;2023-07-20T02:23:48;13.93;;;7.05;;
49578;SDS011;35483;50.828;3.228;2023-07-20T02:26:14;9.27;;;6.15;;
49578;SDS011;35483;50.828;3.228;2023-07-20T02:28:40;11.75;;;7.05;;
49578;SDS011;35483;50.828;3.228;2023-07-20T02:31:06;8.23;;;6.25;;
49578;SDS011;35483;50.828;3.228;2023-07-20T02:33:32;12.30;;;6.40;;
49578;SDS011;35483;50.828;3.228;2023-07-20T02:35:58;9.48;;;6.13;;
49578;SDS011;35483;50.828;3.228;2023-07-20T02:38:23;9.45;;;5.82;;
49578;SDS011;35483;50.828;3.228;2023-07-20T02:40:49;10.98;;;6.20;;
49578;SDS011;35483;50.828;3.228;2023-07-20T02:43:16;10.02;;;6.25;;
49578;SDS011;35483;50.828;3.228;2023-07-20T02:45:42;10.10;;;6.35;;
49578;SDS011;35483;50.828;3.228;2023-07-20T02:48:08;9.60;;;6.63;;
49578;SDS011;35483;50.828;3.228;2023-07-20T02:50:34;8.70;;;6.38;;
49578;SDS011;35483;50.828;3.228;2023-07-20T02:53:00;10.52;;;6.53;;
49578;SDS011;35483;50.828;3.228;2023-07-20T02:55:26;9.48;;;6.70;;
49578;SDS011;35483;50.828;3.228;2023-07-20T02:57:52;8.20;;;6.22;;
49578;SDS011;35483;50.828;3.228;2023-07-20T03:00:17;10.57;;;6.90;;
49578;SDS011;35483;50.828;3.228;2023-07-20T03:02:44;10.43;;;6.85;;
49578;SDS011;35483;50.828;3.228;2023-07-20T03:05:13;9.20;;;6.75;;
49578;SDS011;35483;50.828;3.228;2023-07-20T03:07:39;10.77;;;7.20;;
49578;SDS011;35483;50.828;3.228;2023-07-20T03:10:05;9.38;;;6.70;;
49578;SDS011;35483;50.828;3.228;2023-07-20T03:12:34;7.43;;;6.30;;
49578;SDS011;35483;50.828;3.228;2023-07-20T03:15:03;13.00;;;7.15;;
49578;SDS011;35483;50.828;3.228;2023-07-20T03:17:29;8.77;;;6.70;;
49578;SDS011;35483;50.828;3.228;2023-07-20T03:19:54;10.00;;;6.60;;
49578;SDS011;35483;50.828;3.228;2023-07-20T03:22:20;9.73;;;6.90;;
49578;SDS011;35483;50.828;3.228;2023-07-20T03:24:47;11.43;;;6.55;;
49578;SDS011;35483;50.828;3.228;2023-07-20T03:27:13;8.23;;;6.82;;
49578;SDS011;35483;50.828;3.228;2023-07-20T03:29:38;8.40;;;6.63;;
49578;SDS011;35483;50.828;3.228;2023-07-20T03:32:05;9.32;;;6.30;;
49578;SDS011;35483;50.828;3.228;2023-07-20T03:34:31;8.57;;;6.95;;
49578;SDS011;35483;50.828;3.228;2023-07-20T03:36:57;10.18;;;6.97;;
49578;SDS011;35483;50.828;3.228;2023-07-20T03:39:22;12.82;;;6.78;;
49578;SDS011;35483;50.828;3.228;2023-07-20T03:41:48;8.48;;;7.28;;
49578;SDS011;35483;50.828;3.228;2023-07-20T03:44:14;10.18;;;7.15;;
49578;SDS011;35483;50.828;3.228;2023-07-20T03:46:40;10.02;;;6.60;;
49578;SDS011;35483;50.828;3.228;2023-07-20T03:49:05;10.68;;;6.90;;
49578;SDS011;35483;50.828;3.228;2023-07-20T03:51:31;12.00;;;7.55;;
49578;SDS011;35483;50.828;3.228;2023-07-20T03:53:57;8.77;;;6.35;;
49578;SDS011;35483;50.828;3.228;2023-07-20T03:56:23;9.75;;;6.85;;
49578;SDS011;35483;50.828;3.228;2023-07-20T03:58:50;8.13;;;6.10;;
49578;SDS011;35483;50.828;3.228;2023-07-20T04:01:16;9.98;;;6.47;;
49578;SDS011;35483;50.828;3.228;2023-07-20T04:03:42;8.65;;;6.28;;
49578;SDS011;35483;50.828;3.228;2023-07-20T04:06:08;6.95;;;5.85;;
49578;SDS011;35483;50.828;3.228;2023-07-20T04:08:35;9.93;;;6.32;;
49578;SDS011;35483;50.828;3.228;2023-07-20T04:11:01;8.63;;;6.60;;
49578;SDS011;35483;50.828;3.228;2023-07-20T04:13:27;8.18;;;6.15;;
49578;SDS011;35483;50.828;3.228;2023-07-20T04:15:53;8.88;;;6.50;;
49578;SDS011;35483;50.828;3.228;2023-07-20T04:18:20;8.00;;;6.22;;
49578;SDS011;35483;50.828;3.228;2023-07-20T04:20:45;9.45;;;6.30;;
49578;SDS011;35483;50.828;3.228;2023-07-20T04:23:11;9.40;;;5.88;;
49578;SDS011;35483;50.828;3.228;2023-07-20T04:25:39;8.88;;;6.10;;
49578;SDS011;35483;50.828;3.228;2023-07-20T04:28:06;9.32;;;6.75;;
49578;SDS011;35483;50.828;3.228;2023-07-20T04:30:36;10.23;;;6.80;;
49578;SDS011;35483;50.828;3.228;2023-07-20T04:33:03;7.57;;;6.63;;
49578;SDS011;35483;50.828;3.228;2023-07-20T04:35:44;7.63;;;6.32;;
49578;SDS011;35483;50.828;3.228;2023-07-20T04:38:17;11.68;;;6.40;;
49578;SDS011;35483;50.828;3.228;2023-07-20T04:40:45;10.60;;;6.57;;
49578;SDS011;35483;50.828;3.228;2023-07-20T04:43:12;7.65;;;5.93;;
49578;SDS011;35483;50.828;3.228;2023-07-20T04:45:39;7.80;;;6.55;;
49578;SDS011;35483;50.828;3.228;2023-07-20T04:48:07;8.57;;;6.70;;
49578;SDS011;35483;50.828;3.228;2023-07-20T04:50:36;7.70;;;6.20;;
49578;SDS011;35483;50.828;3.228;2023-07-20T04:53:03;9.20;;;6.05;;
49578;SDS011;35483;50.828;3.228;2023-07-20T04:55:28;8.90;;;6.45;;
49578;SDS011;35483;50.828;3.228;2023-07-20T04:57:54;8.77;;;6.63;;
49578;SDS011;35483;50.828;3.228;2023-07-20T05:00:20;8.38;;;7.07;;
49578;SDS011;35483;50.828;3.228;2023-07-20T05:02:46;8.48;;;6.40;;
49578;SDS011;35483;50.828;3.228;2023-07-20T05:05:13;10.60;;;6.68;;
49578;SDS011;35483;50.828;3.228;2023-07-20T05:07:40;10.05;;;6.70;;
49578;SDS011;35483;50.828;3.228;2023-07-20T05:10:05;8.90;;;7.68;;
49578;SDS011;35483;50.828;3.228;2023-07-20T05:12:32;9.20;;;7.85;;
49578;SDS011;35483;50.828;3.228;2023-07-20T05:14:57;9.55;;;7.10;;
49578;SDS011;35483;50.828;3.228;2023-07-20T05:17:23;9.52;;;7.25;;
49578;SDS011;35483;50.828;3.228;2023-07-20T05:19:49;10.52;;;7.00;;
49578;SDS011;35483;50.828;3.228;2023-07-20T05:22:16;11.50;;;7.90;;
49578;SDS011;35483;50.828;3.228;2023-07-20T05:24:41;12.45;;;7.95;;
49578;SDS011;35483;50.828;3.228;2023-07-20T05:27:08;11.00;;;7.30;;
49578;SDS011;35483;50.828;3.228;2023-07-20T05:29:33;8.65;;;7.28;;
49578;SDS011;35483;50.828;3.228;2023-07-20T05:31:59;9.27;;;7.55;;
49578;SDS011;35483;50.828;3.228;2023-07-20T05:34:25;9.45;;;7.03;;
49578;SDS011;35483;50.828;3.228;2023-07-20T05:36:50;13.48;;;7.75;;
49578;SDS011;35483;50.828;3.228;2023-07-20T05:39:16;11.63;;;7.22;;
49578;SDS011;35483;50.828;3.228;2023-07-20T05:41:43;10.23;;;7.43;;
49578;SDS011;35483;50.828;3.228;2023-07-20T05:44:08;7.22;;;6.43;;
49578;SDS011;35483;50.828;3.228;2023-07-20T05:46:34;9.02;;;6.95;;
49578;SDS011;35483;50.828;3.228;2023-07-20T05:49:00;10.77;;;7.60;;
49578;SDS011;35483;50.828;3.228;2023-07-20T05:51:26;7.95;;;6.95;;
49578;SDS011;35483;50.828;3.228;2023-07-20T05:53:52;11.30;;;7.10;;
49578;SDS011;35483;50.828;3.228;2023-07-20T05:56:18;8.43;;;6.65;;
49578;SDS011;35483;50.828;3.228;2023-07-20T05:58:43;8.65;;;6.90;;
49578;SDS011;35483;50.828;3.228;2023-07-20T06:01:09;8.20;;;6.40;;
49578;SDS011;35483;50.828;3.228;2023-07-20T06:03:35;8.90;;;6.70;;
49578;SDS011;35483;50.828;3.228;2023-07-20T06:06:02;9.52;;;7.45;;
49578;SDS011;35483;50.828;3.228;2023-07-20T06:08:29;11.40;;;7.07;;
49578;SDS011;35483;50.828;3.228;2023-07-20T06:10:55;12.88;;;7.40;;
49578;SDS011;35483;50.828;3.228;2023-07-20T06:13:21;8.52;;;6.72;;
49578;SDS011;35483;50.828;3.228;2023-07-20T06:15:47;8.75;;;6.15;;
49578;SDS011;35483;50.828;3.228;2023-07-20T06:18:13;6.45;;;5.70;;
49578;SDS011;35483;50.828;3.228;2023-07-20T06:20:39;8.73;;;5.95;;
49578;SDS011;35483;50.828;3.228;2023-07-20T06:23:04;8.60;;;5.70;;
49578;SDS011;35483;50.828;3.228;2023-07-20T06:25:30;6.55;;;5.43;;
49578;SDS011;35483;50.828;3.228;2023-07-20T06:27:56;5.55;;;5.05;;
49578;SDS011;35483;50.828;3.228;2023-07-20T06:30:22;5.28;;;4.78;;
49578;SDS011;35483;50.828;3.228;2023-07-20T06:32:49;6.25;;;4.63;;
49578;SDS011;35483;50.828;3.228;2023-07-20T06:35:16;6.75;;;5.95;;
49578;SDS011;35483;50.828;3.228;2023-07-20T06:37:42;6.85;;;5.00;;
49578;SDS011;35483;50.828;3.228;2023-07-20T06:40:08;4.60;;;4.13;;
49578;SDS011;35483;50.828;3.228;2023-07-20T06:42:34;5.22;;;4.68;;
49578;SDS011;35483;50.828;3.228;2023-07-20T06:45:00;4.53;;;4.13;;
49578;SDS011;35483;50.828;3.228;2023-07-20T06:47:26;4.43;;;3.85;;
49578;SDS011;35483;50.828;3.228;2023-07-20T06:49:52;5.75;;;5.15;;
49578;SDS011;35483;50.828;3.228;2023-07-20T06:52:18;7.78;;;3.90;;
49578;SDS011;35483;50.828;3.228;2023-07-20T06:54:44;5.28;;;4.38;;
49578;SDS011;35483;50.828;3.228;2023-07-20T06:57:10;4.72;;;3.60;;
49578;SDS011;35483;50.828;3.228;2023-07-20T06:59:35;4.45;;;4.05;;
49578;SDS011;35483;50.828;3.228;2023-07-20T07:02:01;5.35;;;3.60;;
49578;SDS011;35483;50.828;3.228;2023-07-20T07:04:27;6.03;;;4.50;;
49578;SDS011;35483;50.828;3.228;2023-07-20T07:06:53;5.30;;;4.75;;
49578;SDS011;35483;50.828;3.228;2023-07-20T07:09:19;6.30;;;3.92;;
49578;SDS011;35483;50.828;3.228;2023-07-20T07:11:45;5.63;;;4.30;;
49578;SDS011;35483;50.828;3.228;2023-07-20T07:14:11;4.53;;;3.60;;
49578;SDS011;35483;50.828;3.228;2023-07-20T07:16:37;7.90;;;4.57;;
49578;SDS011;35483;50.828;3.228;2023-07-20T07:19:03;4.22;;;3.53;;
49578;SDS011;35483;50.828;3.228;2023-07-20T07:21:30;4.05;;;3.65;;
49578;SDS011;35483;50.828;3.228;2023-07-20T07:23:56;4.65;;;3.97;;
49578;SDS011;35483;50.828;3.228;2023-07-20T07:26:22;4.00;;;3.60;;
49578;SDS011;35483;50.828;3.228;2023-07-20T07:28:50;3.40;;;3.10;;
49578;SDS011;35483;50.828;3.228;2023-07-20T07:31:15;4.22;;;2.50;;
49578;SDS011;35483;50.828;3.228;2023-07-20T07:33:41;4.32;;;2.78;;
49578;SDS011;35483;50.828;3.228;2023-07-20T07:36:07;3.00;;;2.70;;
49578;SDS011;35483;50.828;3.228;2023-07-20T07:38:32;3.35;;;2.25;;
49578;SDS011;35483;50.828;3.228;2023-07-20T07:40:58;2.67;;;2.17;;
49578;SDS011;35483;50.828;3.228;2023-07-20T07:43:24;3.00;;;2.75;;
49578;SDS011;35483;50.828;3.228;2023-07-20T07:45:53;3.38;;;3.08;;
49578;SDS011;35483;50.828;3.228;2023-07-20T07:48:19;3.72;;;2.88;;
49578;SDS011;35483;50.828;3.228;2023-07-20T07:50:46;3.20;;;2.90;;
49578;SDS011;35483;50.828;3.228;2023-07-20T07:53:12;4.93;;;2.97;;
49578;SDS011;35483;50.828;3.228;2023-07-20T07:55:37;3.25;;;2.85;;
49578;SDS011;35483;50.828;3.228;2023-07-20T07:58:03;2.60;;;2.40;;
49578;SDS011;35483;50.828;3.228;2023-07-20T08:00:29;2.88;;;2.60;;
49578;SDS011;35483;50.828;3.228;2023-07-20T08:02:54;3.65;;;2.47;;
49578;SDS011;35483;50.828;3.228;2023-07-20T08:05:20;2.83;;;2.53;;
49578;SDS011;35483;50.828;3.228;2023-07-20T08:07:46;3.50;;;2.83;;
49578;SDS011;35483;50.828;3.228;2023-07-20T08:10:11;3.72;;;2.90;;
49578;SDS011;35483;50.828;3.228;2023-07-20T08:12:37;5.30;;;2.92;;
49578;SDS011;35483;50.828;3.228;2023-07-20T08:15:03;3.05;;;2.60;;
49578;SDS011;35483;50.828;3.228;2023-07-20T08:17:29;3.58;;;3.00;;
49578;SDS011;35483;50.828;3.228;2023-07-20T08:19:54;3.35;;;2.00;;
49578;SDS011;35483;50.828;3.228;2023-07-20T08:22:20;3.63;;;2.72;;
49578;SDS011;35483;50.828;3.228;2023-07-20T08:24:46;3.20;;;2.70;;
49578;SDS011;35483;50.828;3.228;2023-07-20T08:27:11;3.28;;;2.60;;
49578;SDS011;35483;50.828;3.228;2023-07-20T08:29:37;3.88;;;2.72;;
49578;SDS011;35483;50.828;3.228;2023-07-20T08:32:03;2.85;;;2.55;;
49578;SDS011;35483;50.828;3.228;2023-07-20T08:34:30;4.60;;;2.78;;
49578;SDS011;35483;50.828;3.228;2023-07-20T08:36:56;3.28;;;2.72;;
49578;SDS011;35483;50.828;3.228;2023-07-20T08:39:22;3.17;;;2.60;;
49578;SDS011;35483;50.828;3.228;2023-07-20T08:41:49;3.10;;;2.67;;
49578;SDS011;35483;50.828;3.228;2023-07-20T08:44:14;3.50;;;2.47;;
49578;SDS011;35483;50.828;3.228;2023-07-20T08:46:40;3.67;;;2.88;;
49578;SDS011;35483;50.828;3.228;2023-07-20T08:49:07;3.35;;;3.05;;
49578;SDS011;35483;50.828;3.228;2023-07-20T08:51:34;2.80;;;2.45;;
49578;SDS011;35483;50.828;3.228;2023-07-20T08:54:01;2.80;;;2.40;;
49578;SDS011;35483;50.828;3.228;2023-07-20T08:56:27;3.58;;;2.95;;
49578;SDS011;35483;50.828;3.228;2023-07-20T08:58:56;4.18;;;2.78;;
49578;SDS011;35483;50.828;3.228;2023-07-20T09:01:23;3.25;;;2.70;;
49578;SDS011;35483;50.828;3.228;2023-07-20T09:03:50;4.65;;;2.75;;
49578;SDS011;35483;50.828;3.228;2023-07-20T09:06:15;3.47;;;3.17;;
49578;SDS011;35483;50.828;3.228;2023-07-20T09:08:41;3.33;;;2.50;;
49578;SDS011;35483;50.828;3.228;2023-07-20T09:11:07;3.38;;;2.70;;
49578;SDS011;35483;50.828;3.228;2023-07-20T09:13:37;3.42;;;2.45;;
49578;SDS011;35483;50.828;3.228;2023-07-20T09:16:03;2.70;;;2.40;;
49578;SDS011;35483;50.828;3.228;2023-07-20T09:18:30;4.38;;;2.70;;
49578;SDS011;35483;50.828;3.228;2023-07-20T09:21:03;4.57;;;2.60;;
49578;SDS011;35483;50.828;3.228;2023-07-20T09:23:35;2.97;;;2.58;;
49578;SDS011;35483;50.828;3.228;2023-07-20T09:26:11;2.90;;;2.40;;
49578;SDS011;35483;50.828;3.228;2023-07-20T09:28:42;3.90;;;2.60;;
49578;SDS011;35483;50.828;3.228;2023-07-20T09:33:46;3.40;;;3.10;;
49578;SDS011;35483;50.828;3.228;2023-07-20T09:36:13;3.72;;;2.90;;
49578;SDS011;35483;50.828;3.228;2023-07-20T09:38:40;4.55;;;3.55;;
49578;SDS011;35483;50.828;3.228;2023-07-20T09:41:08;3.72;;;3.38;;
49578;SDS011;35483;50.828;3.228;2023-07-20T09:43:37;4.32;;;3.40;;
49578;SDS011;35483;50.828;3.228;2023-07-20T09:46:04;3.95;;;3.45;;
49578;SDS011;35483;50.828;3.228;2023-07-20T09:48:30;3.88;;;3.58;;
49578;SDS011;35483;50.828;3.228;2023-07-20T09:50:56;4.10;;;3.42;;
49578;SDS011;35483;50.828;3.228;2023-07-20T09:53:22;4.55;;;3.63;;
49578;SDS011;35483;50.828;3.228;2023-07-20T09:55:50;4.25;;;3.47;;
49578;SDS011;35483;50.828;3.228;2023-07-20T09:58:17;3.55;;;3.25;;
49578;SDS011;35483;50.828;3.228;2023-07-20T10:00:43;4.13;;;3.70;;
49578;SDS011;35483;50.828;3.228;2023-07-20T10:03:12;5.22;;;3.83;;
49578;SDS011;35483;50.828;3.228;2023-07-20T10:05:43;4.22;;;3.70;;
49578;SDS011;35483;50.828;3.228;2023-07-20T10:08:13;4.25;;;3.90;;
49578;SDS011;35483;50.828;3.228;2023-07-20T10:10:41;5.53;;;3.65;;
49578;SDS011;35483;50.828;3.228;2023-07-20T10:13:13;4.40;;;3.17;;
49578;SDS011;35483;50.828;3.228;2023-07-20T10:15:43;4.07;;;3.17;;
49578;SDS011;35483;50.828;3.228;2023-07-20T10:20:59;5.10;;;3.65;;
49578;SDS011;35483;50.828;3.228;2023-07-20T10:23:28;3.88;;;3.08;;
49578;SDS011;35483;50.828;3.228;2023-07-20T10:25:55;3.63;;;3.33;;
49578;SDS011;35483;50.828;3.228;2023-07-20T10:28:22;4.45;;;3.25;;
49578;SDS011;35483;50.828;3.228;2023-07-20T10:30:49;5.78;;;3.30;;
49578;SDS011;35483;50.828;3.228;2023-07-20T10:33:16;4.57;;;3.00;;
49578;SDS011;35483;50.828;3.228;2023-07-20T10:35:56;3.95;;;2.97;;
49578;SDS011;35483;50.828;3.228;2023-07-20T10:41:20;3.60;;;3.08;;
49578;SDS011;35483;50.828;3.228;2023-07-20T10:43:51;3.97;;;3.58;;
49578;SDS011;35483;50.828;3.228;2023-07-20T10:49:09;4.57;;;3.83;;
49578;SDS011;35483;50.828;3.228;2023-07-20T10:54:07;3.88;;;2.75;;
49578;SDS011;35483;50.828;3.228;2023-07-20T10:56:33;3.88;;;3.03;;
49578;SDS011;35483;50.828;3.228;2023-07-20T10:59:00;4.00;;;2.97;;
49578;SDS011;35483;50.828;3.228;2023-07-20T11:01:42;3.85;;;3.42;;
49578;SDS011;35483;50.828;3.228;2023-07-20T11:04:10;3.55;;;2.83;;
49578;SDS011;35483;50.828;3.228;2023-07-20T11:06:36;3.55;;;3.25;;
49578;SDS011;35483;50.828;3.228;2023-07-20T11:11:30;4.10;;;3.78;;
49578;SDS011;35483;50.828;3.228;2023-07-20T11:13:58;6.30;;;3.53;;
49578;SDS011;35483;50.828;3.228;2023-07-20T11:19:24;4.32;;;3.55;;
49578;SDS011;35483;50.828;3.228;2023-07-20T11:21:55;5.25;;;4.22;;
49578;SDS011;35483;50.828;3.228;2023-07-20T11:24:22;4.57;;;3.90;;
49578;SDS011;35483;50.828;3.228;2023-07-20T11:26:48;4.43;;;3.10;;
49578;SDS011;35483;50.828;3.228;2023-07-20T11:29:19;5.10;;;2.92;;
49578;SDS011;35483;50.828;3.228;2023-07-20T11:31:47;3.58;;;3.28;;
49578;SDS011;35483;50.828;3.228;2023-07-20T11:34:15;2.88;;;2.67;;
49578;SDS011;35483;50.828;3.228;2023-07-20T11:36:42;5.20;;;2.83;;
49578;SDS011;35483;50.828;3.228;2023-07-20T11:39:19;4.85;;;2.83;;
49578;SDS011;35483;50.828;3.228;2023-07-20T11:41:47;2.78;;;2.22;;
49578;SDS011;35483;50.828;3.228;2023-07-20T11:44:23;4.13;;;2.90;;
49578;SDS011;35483;50.828;3.228;2023-07-20T11:47:04;3.17;;;2.40;;
49578;SDS011;35483;50.828;3.228;2023-07-20T11:49:42;3.30;;;2.60;;
49578;SDS011;35483;50.828;3.228;2023-07-20T11:52:10;3.20;;;2.60;;
49578;SDS011;35483;50.828;3.228;2023-07-20T11:54:39;2.97;;;2.22;;
49578;SDS011;35483;50.828;3.228;2023-07-20T11:57:05;3.65;;;2.97;;
49578;SDS011;35483;50.828;3.228;2023-07-20T11:59:31;2.85;;;2.65;;
49578;SDS011;35483;50.828;3.228;2023-07-20T12:02:03;3.08;;;2.75;;
49578;SDS011;35483;50.828;3.228;2023-07-20T12:04:31;3.78;;;2.90;;
49578;SDS011;35483;50.828;3.228;2023-07-20T12:06:58;3.15;;;2.45;;
49578;SDS011;35483;50.828;3.228;2023-07-20T12:09:25;3.08;;;2.40;;
49578;SDS011;35483;50.828;3.228;2023-07-20T12:11:51;2.95;;;2.50;;
49578;SDS011;35483;50.828;3.228;2023-07-20T12:14:16;4.45;;;2.80;;
49578;SDS011;35483;50.828;3.228;2023-07-20T12:16:42;3.15;;;2.75;;
49578;SDS011;35483;50.828;3.228;2023-07-20T12:19:09;5.63;;;2.95;;
49578;SDS011;35483;50.828;3.228;2023-07-20T12:21:37;4.80;;;3.10;;
49578;SDS011;35483;50.828;3.228;2023-07-20T12:24:05;3.95;;;3.35;;
49578;SDS011;35483;50.828;3.228;2023-07-20T12:26:32;3.17;;;2.80;;
49578;SDS011;35483;50.828;3.228;2023-07-20T12:28:58;4.05;;;2.70;;
49578;SDS011;35483;50.828;3.228;2023-07-20T12:31:25;5.18;;;3.30;;
49578;SDS011;35483;50.828;3.228;2023-07-20T12:33:53;4.55;;;3.22;;
49578;SDS011;35483;50.828;3.228;2023-07-20T12:36:22;3.28;;;2.97;;
49578;SDS011;35483;50.828;3.228;2023-07-20T12:38:48;4.00;;;3.08;;
49578;SDS011;35483;50.828;3.228;2023-07-20T12:41:13;4.38;;;3.20;;
49578;SDS011;35483;50.828;3.228;2023-07-20T12:43:43;3.88;;;3.15;;
49578;SDS011;35483;50.828;3.228;2023-07-20T12:46:10;4.28;;;3.10;;
49578;SDS011;35483;50.828;3.228;2023-07-20T12:48:37;10.48;;;4.68;;
49578;SDS011;35483;50.828;3.228;2023-07-20T12:51:05;7.85;;;4.63;;
49578;SDS011;35483;50.828;3.228;2023-07-20T12:53:31;9.25;;;4.70;;
49578;SDS011;35483;50.828;3.228;2023-07-20T12:55:57;9.35;;;5.22;;
49578;SDS011;35483;50.828;3.228;2023-07-20T12:58:24;7.10;;;5.00;;
49578;SDS011;35483;50.828;3.228;2023-07-20T13:00:50;5.88;;;5.10;;
49578;SDS011;35483;50.828;3.228;2023-07-20T13:03:15;6.07;;;5.22;;
49578;SDS011;35483;50.828;3.228;2023-07-20T13:05:43;7.75;;;7.03;;
49578;SDS011;35483;50.828;3.228;2023-07-20T13:08:09;8.98;;;7.38;;
49578;SDS011;35483;50.828;3.228;2023-07-20T13:10:36;14.90;;;7.90;;
49578;SDS011;35483;50.828;3.228;2023-07-20T13:13:01;10.68;;;8.18;;
49578;SDS011;35483;50.828;3.228;2023-07-20T13:15:31;10.25;;;7.40;;
49578;SDS011;35483;50.828;3.228;2023-07-20T13:17:58;9.80;;;8.38;;
49578;SDS011;35483;50.828;3.228;2023-07-20T13:20:24;11.18;;;8.88;;
49578;SDS011;35483;50.828;3.228;2023-07-20T13:22:51;10.80;;;9.05;;
49578;SDS011;35483;50.828;3.228;2023-07-20T13:25:17;11.88;;;9.63;;
49578;SDS011;35483;50.828;3.228;2023-07-20T13:27:43;9.38;;;8.38;;
49578;SDS011;35483;50.828;3.228;2023-07-20T13:30:10;8.60;;;7.72;;
49578;SDS011;35483;50.828;3.228;2023-07-20T13:32:41;9.40;;;7.68;;
49578;SDS011;35483;50.828;3.228;2023-07-20T13:35:15;9.43;;;8.43;;
49578;SDS011;35483;50.828;3.228;2023-07-20T13:37:41;8.77;;;7.97;;
49578;SDS011;35483;50.828;3.228;2023-07-20T13:40:07;8.88;;;7.78;;
49578;SDS011;35483;50.828;3.228;2023-07-20T13:42:37;9.82;;;8.25;;
49578;SDS011;35483;50.828;3.228;2023-07-20T13:45:03;9.98;;;8.95;;
49578;SDS011;35483;50.828;3.228;2023-07-20T13:47:29;11.65;;;9.60;;
49578;SDS011;35483;50.828;3.228;2023-07-20T13:49:55;11.80;;;10.43;;
49578;SDS011;35483;50.828;3.228;2023-07-20T13:52:21;11.93;;;10.35;;
49578;SDS011;35483;50.828;3.228;2023-07-20T13:54:47;12.15;;;10.95;;
49578;SDS011;35483;50.828;3.228;2023-07-20T13:57:12;13.80;;;11.63;;
49578;SDS011;35483;50.828;3.228;2023-07-20T13:59:38;13.45;;;11.13;;
49578;SDS011;35483;50.828;3.228;2023-07-20T14:02:04;14.32;;;12.30;;
49578;SDS011;35483;50.828;3.228;2023-07-20T14:04:30;14.27;;;12.77;;
49578;SDS011;35483;50.828;3.228;2023-07-20T14:06:55;13.90;;;12.32;;
49578;SDS011;35483;50.828;3.228;2023-07-20T14:09:21;15.68;;;12.38;;
49578;SDS011;35483;50.828;3.228;2023-07-20T14:11:48;13.32;;;12.02;;
49578;SDS011;35483;50.828;3.228;2023-07-20T14:14:13;14.38;;;12.13;;
49578;SDS011;35483;50.828;3.228;2023-07-20T14:16:39;13.20;;;11.90;;
49578;SDS011;35483;50.828;3.228;2023-07-20T14:19:05;14.38;;;12.95;;
49578;SDS011;35483;50.828;3.228;2023-07-20T14:21:30;13.05;;;11.63;;
49578;SDS011;35483;50.828;3.228;2023-07-20T14:23:56;12.95;;;11.63;;
49578;SDS011;35483;50.828;3.228;2023-07-20T14:26:23;13.88;;;12.48;;
49578;SDS011;35483;50.828;3.228;2023-07-20T14:28:50;12.73;;;11.43;;
49578;SDS011;35483;50.828;3.228;2023-07-20T14:31:16;12.23;;;10.95;;
49578;SDS011;35483;50.828;3.228;2023-07-20T14:33:42;12.75;;;11.45;;
49578;SDS011;35483;50.828;3.228;2023-07-20T14:36:08;12.30;;;10.57;;
49578;SDS011;35483;50.828;3.228;2023-07-20T14:38:34;12.00;;;10.70;;
49578;SDS011;35483;50.828;3.228;2023-07-20T14:41:00;12.27;;;10.98;;
49578;SDS011;35483;50.828;3.228;2023-07-20T14:43:27;12.23;;;10.95;;
49578;SDS011;35483;50.828;3.228;2023-07-20T14:45:52;11.05;;;9.95;;
49578;SDS011;35483;50.828;3.228;2023-07-20T14:48:19;12.10;;;10.85;;
49578;SDS011;35483;50.828;3.228;2023-07-20T14:50:46;11.55;;;10.45;;
49578;SDS011;35483;50.828;3.228;2023-07-20T14:53:12;12.70;;;11.43;;
49578;SDS011;35483;50.828;3.228;2023-07-20T14:55:39;12.27;;;11.10;;
49578;SDS011;35483;50.828;3.228;2023-07-20T14:58:04;12.25;;;11.05;;
49578;SDS011;35483;50.828;3.228;2023-07-20T15:00:30;10.43;;;9.43;;
49578;SDS011;35483;50.828;3.228;2023-07-20T15:02:57;10.38;;;9.35;;
49578;SDS011;35483;50.828;3.228;2023-07-20T15:05:23;10.60;;;9.50;;
49578;SDS011;35483;50.828;3.228;2023-07-20T15:07:51;9.75;;;8.75;;
49578;SDS011;35483;50.828;3.228;2023-07-20T15:10:17;8.93;;;8.05;;
49578;SDS011;35483;50.828;3.228;2023-07-20T15:12:43;8.80;;;7.90;;